Shanghai, China

14:59 CST le 10 décembre 2016 (GMT +0800)
Duke Kunshan University | | Change Station

Alt. 7 ft 31.42 °N, 120.89 °E | Updated 12 seconds ago

Nuageux
Nuageux
54.1 ° F
Paraît 54.1 ° F
N
3.6
Vent Variable Vent de ENE
Gusts 4.9 mph

Aujourd'hui
Haut(e) -- | Bas -- ° F
--% Risque de précip.
Hier
Haut(e) -- | Bas -- ° F
Precip. -- pouce
Pression 30.24 pouce
Visibilité 6.2 Miles terrestres
Nuages Peu 4000 ft
Point de rosée 38 ° F
Humidité 55%
Précipitations 0.00 pouce
Profondeur de la couche neigeuse Non disponible.
6:44 AM 4:52 PM
Lune gibbeuse croissante, 81% visible
METAR ZSSS 100630Z 03006MPS 9999 FEW040 13/03 Q1024 NOSIG
Pression 30.24 pouce
Visibilité 6.2 Miles terrestres
Nuages Peu 4000 ft
Point de rosée 38 ° F
Humidité 55%
Précipitations 0.00 pouce
Profondeur de la couche neigeuse Non disponible.
6:44 AM 4:52 PM
Lune gibbeuse croissante, 81% visible
METAR ZSSS 100630Z 03006MPS 9999 FEW040 13/03 Q1024 NOSIG

10-Day Weather Forecast

No radar image for this location.
×

Almanac

Astronomie

Dec. 10, 2016 Lever Coucher
Temps réel
Crépuscule civil
Crépuscule nautique
Crépuscule astronomique
Lune
Durée de lumière visible
Longueur du jour
Tomorrow will be .
, % of the Moon is Illuminated

Extrêmes aujourd'hui

Country Highs Country Lows

Community

WunderPhotos

Upload Photos

1,956,527 Photos téléchargées !

WunderBlog® & News

Nearby

Qualité de l'air

  Qualité de l'air Indice de la qualité de l'air Polluant
Not available.

Épaisseur de neige

Station Depth Altitude

Activité sismique

Ville Distance Mag. Time & Date
Minimum magnitude displayed is 2.5.

Températures des eaux côtières

Lieu Température

Stations

Stations météo à proximité

Emplacement de la station Température Refroidissement éolien Point de rosée Humidité Vent Precip. Alt. Mise à jour Type